createdAt,value
2018-03-25T00:00:32.663Z,990.9
2018-03-25T00:01:34.089Z,990.9
2018-03-25T00:02:35.480Z,990.9
2018-03-25T00:03:36.856Z,990.9
2018-03-25T00:04:38.242Z,990.9
2018-03-25T00:05:39.631Z,990.9
2018-03-25T00:06:41.078Z,990.9
2018-03-25T00:07:42.494Z,991.0
2018-03-25T00:08:43.884Z,991.0
2018-03-25T00:09:45.271Z,990.9
2018-03-25T00:10:46.666Z,991.0
2018-03-25T00:11:48.053Z,991.0
2018-03-25T00:12:49.440Z,990.9
2018-03-25T00:13:50.856Z,990.9
2018-03-25T00:14:52.248Z,990.9
2018-03-25T00:15:53.623Z,990.9
2018-03-25T00:16:55.007Z,990.9
2018-03-25T00:17:56.394Z,990.9
2018-03-25T00:18:57.780Z,990.9
2018-03-25T00:19:59.184Z,990.9
2018-03-25T00:21:00.568Z,990.9
2018-03-25T00:22:01.959Z,990.9
2018-03-25T00:23:03.349Z,990.9
2018-03-25T00:24:04.726Z,990.9
2018-03-25T00:25:06.359Z,990.9
2018-03-25T00:26:07.727Z,990.9
2018-03-25T00:27:09.113Z,990.9
2018-03-25T00:28:10.497Z,990.9
2018-03-25T00:29:11.877Z,990.9
2018-03-25T00:30:13.262Z,990.9
2018-03-25T00:31:14.647Z,990.9
2018-03-25T00:32:16.034Z,990.9
2018-03-25T00:33:17.427Z,990.9
2018-03-25T00:34:18.805Z,990.9
2018-03-25T00:35:20.189Z,990.9
2018-03-25T00:36:21.626Z,990.9
2018-03-25T00:37:22.954Z,990.9
2018-03-25T00:38:24.337Z,990.9
2018-03-25T00:39:25.749Z,990.9
2018-03-25T00:40:27.110Z,990.9
2018-03-25T00:41:28.498Z,990.9
2018-03-25T00:42:29.884Z,990.9
2018-03-25T00:43:31.261Z,990.9
2018-03-25T00:44:32.642Z,991.0
2018-03-25T00:45:34.028Z,990.9
2018-03-25T00:46:35.409Z,990.9
2018-03-25T00:47:36.803Z,990.9
2018-03-25T00:48:38.184Z,990.9
2018-03-25T00:49:39.569Z,990.8
2018-03-25T00:50:40.955Z,990.9
2018-03-25T00:51:42.346Z,990.9
2018-03-25T00:52:43.727Z,990.9
2018-03-25T00:53:45.114Z,990.9
2018-03-25T00:54:46.503Z,990.9
2018-03-25T00:55:47.911Z,990.9
2018-03-25T00:56:49.300Z,990.9
2018-03-25T00:57:50.679Z,990.9
2018-03-25T00:58:52.068Z,990.9
2018-03-25T00:59:53.453Z,990.9
2018-03-25T01:00:54.840Z,990.8
2018-03-25T01:01:56.221Z,990.8
2018-03-25T01:02:57.604Z,990.8
2018-03-25T01:03:58.986Z,990.8
2018-03-25T01:05:00.373Z,990.8
2018-03-25T01:06:01.754Z,990.8
2018-03-25T01:07:03.136Z,990.8
2018-03-25T01:08:04.528Z,990.8
2018-03-25T01:09:05.915Z,990.8
2018-03-25T01:10:07.305Z,990.8
2018-03-25T01:11:08.688Z,990.8
2018-03-25T01:12:10.073Z,990.8
2018-03-25T01:13:11.469Z,990.8
2018-03-25T01:14:12.851Z,990.8
2018-03-25T01:15:14.243Z,990.8
2018-03-25T01:16:15.626Z,990.9
2018-03-25T01:17:17.023Z,990.8
2018-03-25T01:18:18.404Z,990.8
2018-03-25T01:19:19.787Z,990.9
2018-03-25T01:20:21.169Z,990.8
2018-03-25T01:21:22.553Z,990.8
2018-03-25T01:22:23.935Z,990.8
2018-03-25T01:23:25.324Z,990.8
2018-03-25T01:24:26.724Z,990.8
2018-03-25T01:25:28.107Z,990.8
2018-03-25T01:26:29.488Z,990.8
2018-03-25T01:27:30.880Z,990.8
2018-03-25T01:28:32.266Z,990.8
2018-03-25T01:29:33.652Z,990.8
2018-03-25T01:30:35.039Z,990.9
2018-03-25T01:31:36.428Z,990.9
2018-03-25T01:32:37.876Z,990.9
2018-03-25T01:33:39.197Z,990.9
2018-03-25T01:34:40.586Z,990.8
2018-03-25T01:35:41.970Z,990.8
2018-03-25T01:36:43.356Z,990.8
2018-03-25T01:37:44.742Z,990.8
2018-03-25T01:38:46.129Z,990.8
2018-03-25T01:39:47.516Z,990.8
2018-03-25T01:40:48.902Z,990.8
2018-03-25T01:41:50.288Z,990.8
2018-03-25T01:42:51.679Z,990.8
2018-03-25T01:43:53.171Z,990.8
2018-03-25T01:44:54.561Z,990.8
2018-03-25T01:45:55.945Z,990.8
2018-03-25T01:46:57.328Z,990.8
2018-03-25T01:47:58.714Z,990.8
2018-03-25T01:49:00.099Z,990.8
2018-03-25T01:50:01.498Z,990.8
2018-03-25T01:51:02.883Z,990.8
2018-03-25T01:52:04.271Z,990.8
2018-03-25T01:53:05.654Z,990.8
2018-03-25T01:54:07.045Z,990.8
2018-03-25T01:55:08.425Z,990.8
2018-03-25T01:56:09.802Z,990.8
2018-03-25T01:57:11.190Z,990.8
2018-03-25T01:58:12.575Z,990.9
2018-03-25T01:59:13.958Z,990.8
2018-03-25T02:00:15.343Z,990.8
2018-03-25T02:01:16.723Z,990.9
2018-03-25T02:02:18.110Z,990.9
2018-03-25T02:03:19.496Z,990.9
2018-03-25T02:04:20.893Z,990.9
2018-03-25T02:05:22.276Z,990.9
2018-03-25T02:06:23.663Z,990.9
2018-03-25T02:07:25.057Z,990.9
2018-03-25T02:08:26.439Z,990.9
2018-03-25T02:09:27.824Z,990.9
2018-03-25T02:10:29.206Z,990.9
2018-03-25T02:11:30.591Z,990.9
2018-03-25T02:12:31.984Z,990.9
2018-03-25T02:13:33.359Z,990.9
2018-03-25T02:14:34.746Z,990.9
2018-03-25T02:15:36.140Z,990.9
2018-03-25T02:16:37.523Z,990.9
2018-03-25T02:17:38.914Z,990.9
2018-03-25T02:18:40.290Z,990.9
2018-03-25T02:19:41.675Z,990.9
2018-03-25T02:20:43.062Z,990.9
2018-03-25T02:21:44.452Z,990.9
2018-03-25T02:22:45.830Z,990.9
2018-03-25T02:23:47.214Z,991.0
2018-03-25T02:24:48.610Z,990.9
2018-03-25T02:25:49.990Z,991.0
2018-03-25T02:26:51.381Z,991.0
2018-03-25T02:27:52.778Z,991.0
2018-03-25T02:28:54.158Z,990.9
2018-03-25T02:29:55.541Z,990.9
2018-03-25T02:30:56.925Z,990.9
2018-03-25T02:31:58.312Z,990.9
2018-03-25T02:32:59.700Z,991.0
2018-03-25T02:34:01.131Z,991.0
2018-03-25T02:35:02.517Z,991.0
2018-03-25T02:36:03.916Z,991.0
2018-03-25T02:37:05.294Z,991.0
2018-03-25T02:38:06.682Z,991.0
2018-03-25T02:39:08.064Z,990.9
2018-03-25T02:40:09.450Z,991.0
2018-03-25T02:41:10.839Z,991.0
2018-03-25T02:42:12.229Z,991.0
2018-03-25T02:43:13.637Z,991.0
2018-03-25T02:44:15.012Z,991.1
2018-03-25T02:45:16.399Z,991.0
2018-03-25T02:46:17.784Z,991.0
2018-03-25T02:47:19.172Z,991.0
2018-03-25T02:48:20.546Z,991.0
2018-03-25T02:49:21.933Z,991.0
2018-03-25T02:50:23.329Z,991.0
2018-03-25T02:51:24.701Z,991.0
2018-03-25T02:52:26.085Z,991.0
2018-03-25T02:53:27.470Z,991.1
2018-03-25T02:54:28.854Z,991.0
2018-03-25T02:55:30.239Z,990.9
2018-03-25T02:56:31.626Z,991.0
2018-03-25T02:57:33.014Z,991.1
2018-03-25T02:58:34.398Z,991.0
2018-03-25T02:59:35.786Z,991.1
2018-03-25T03:00:37.176Z,991.1
2018-03-25T03:01:38.581Z,991.1
2018-03-25T03:02:39.970Z,991.1
2018-03-25T03:03:41.351Z,991.1
2018-03-25T03:04:42.737Z,991.1
2018-03-25T03:05:44.124Z,991.1
2018-03-25T03:06:45.515Z,991.1
2018-03-25T03:07:46.889Z,991.1
2018-03-25T03:08:48.270Z,991.1
2018-03-25T03:09:49.655Z,991.1
2018-03-25T03:10:51.037Z,991.2
2018-03-25T03:11:52.427Z,991.1
2018-03-25T03:12:53.812Z,991.1
2018-03-25T03:13:55.235Z,991.1
2018-03-25T03:14:56.580Z,991.2
2018-03-25T03:15:57.965Z,991.1
2018-03-25T03:16:59.349Z,991.2
2018-03-25T03:18:00.734Z,991.1
2018-03-25T03:19:02.117Z,991.2
2018-03-25T03:20:03.516Z,991.3
2018-03-25T03:21:04.898Z,991.3
2018-03-25T03:22:06.342Z,991.2
2018-03-25T03:23:07.766Z,991.2
2018-03-25T03:24:09.150Z,991.3
2018-03-25T03:25:10.537Z,991.3
2018-03-25T03:26:11.943Z,991.3
2018-03-25T03:27:13.310Z,991.3
2018-03-25T03:28:14.696Z,991.3
2018-03-25T03:29:16.077Z,991.3
2018-03-25T03:30:17.462Z,991.3
2018-03-25T03:31:18.850Z,991.3
2018-03-25T03:32:20.236Z,991.3
2018-03-25T03:33:21.619Z,991.3
2018-03-25T03:34:23.000Z,991.3
2018-03-25T03:35:24.397Z,991.4
2018-03-25T03:36:25.784Z,991.4
2018-03-25T03:37:27.171Z,991.4
2018-03-25T03:38:28.567Z,991.5
2018-03-25T03:39:29.950Z,991.5
2018-03-25T03:40:31.337Z,991.5
2018-03-25T03:41:32.719Z,991.6
2018-03-25T03:42:34.103Z,991.6
2018-03-25T03:43:35.482Z,991.6
2018-03-25T03:44:36.864Z,991.6
2018-03-25T03:45:38.252Z,991.6
2018-03-25T03:46:39.637Z,991.5
2018-03-25T03:47:41.022Z,991.6
2018-03-25T03:48:42.404Z,991.5
2018-03-25T03:49:43.805Z,991.6
2018-03-25T03:50:45.192Z,991.6
2018-03-25T03:51:46.576Z,991.6
2018-03-25T03:52:47.960Z,991.6
2018-03-25T03:53:49.363Z,991.6
2018-03-25T03:54:50.747Z,991.6
2018-03-25T03:55:52.131Z,991.6
2018-03-25T03:56:53.515Z,991.6
2018-03-25T03:57:54.900Z,991.6
2018-03-25T03:58:56.278Z,991.7
2018-03-25T03:59:57.663Z,991.6
2018-03-25T04:00:59.049Z,991.6
2018-03-25T04:02:00.436Z,991.6
2018-03-25T04:03:01.820Z,991.6
2018-03-25T04:04:03.199Z,991.7
2018-03-25T04:05:04.587Z,991.6
2018-03-25T04:06:05.977Z,991.6
2018-03-25T04:07:07.357Z,991.6
2018-03-25T04:08:08.739Z,991.6
2018-03-25T04:09:10.124Z,991.6
2018-03-25T04:10:11.506Z,991.6
2018-03-25T04:11:12.973Z,991.6
2018-03-25T04:12:14.372Z,991.6
2018-03-25T04:13:15.756Z,991.7
2018-03-25T04:14:17.140Z,991.7
2018-03-25T04:15:18.528Z,991.7
2018-03-25T04:16:19.917Z,991.7
2018-03-25T04:17:21.301Z,991.7
2018-03-25T04:18:22.689Z,991.8
2018-03-25T04:19:24.071Z,991.8
2018-03-25T04:20:25.451Z,991.8
2018-03-25T04:21:26.839Z,991.8
2018-03-25T04:22:28.225Z,991.8
2018-03-25T04:23:29.614Z,991.8
2018-03-25T04:24:30.998Z,991.8
2018-03-25T04:25:32.376Z,991.8
2018-03-25T04:26:33.761Z,991.8
2018-03-25T04:27:35.148Z,991.8
2018-03-25T04:28:36.536Z,991.8
2018-03-25T04:29:37.921Z,991.8
2018-03-25T04:30:39.311Z,991.8
2018-03-25T04:31:40.693Z,991.8
2018-03-25T04:32:42.084Z,991.7
2018-03-25T04:33:43.463Z,991.8
2018-03-25T04:34:44.847Z,991.8
2018-03-25T04:35:46.234Z,991.8
2018-03-25T04:36:47.620Z,991.8
2018-03-25T04:37:49.004Z,991.8
2018-03-25T04:38:50.417Z,991.8
2018-03-25T04:39:51.800Z,991.8
2018-03-25T04:40:53.185Z,991.8
2018-03-25T04:41:54.596Z,991.8
2018-03-25T04:42:55.979Z,991.8
2018-03-25T04:43:57.365Z,991.8
2018-03-25T04:44:58.748Z,991.9
2018-03-25T04:46:00.130Z,991.9
2018-03-25T04:47:01.511Z,991.9
2018-03-25T04:48:02.895Z,991.9
2018-03-25T04:49:04.283Z,991.9
2018-03-25T04:50:05.668Z,991.9
2018-03-25T04:51:07.056Z,992.0
2018-03-25T04:52:08.438Z,992.0
2018-03-25T04:53:09.821Z,991.9
2018-03-25T04:54:11.202Z,991.9
2018-03-25T04:55:12.587Z,991.9
2018-03-25T04:56:13.968Z,991.9
2018-03-25T04:57:15.354Z,991.9
2018-03-25T04:58:16.741Z,991.9
2018-03-25T04:59:18.127Z,991.9
2018-03-25T05:00:19.626Z,992.0
2018-03-25T05:01:21.019Z,992.0
2018-03-25T05:02:22.400Z,992.0
2018-03-25T05:03:23.786Z,992.0
2018-03-25T05:04:25.172Z,992.0
2018-03-25T05:05:26.559Z,992.0
2018-03-25T05:06:27.946Z,992.0
2018-03-25T05:07:29.334Z,992.0
2018-03-25T05:08:30.719Z,992.0
2018-03-25T05:09:32.105Z,992.1
2018-03-25T05:10:33.488Z,992.1
2018-03-25T05:11:34.875Z,992.1
2018-03-25T05:12:36.268Z,992.1
2018-03-25T05:13:37.657Z,992.1
2018-03-25T05:14:39.032Z,992.1
2018-03-25T05:15:40.413Z,992.2
2018-03-25T05:16:41.798Z,992.2
2018-03-25T05:17:43.185Z,992.2
2018-03-25T05:18:44.569Z,992.2
2018-03-25T05:19:45.952Z,992.2
2018-03-25T05:20:47.339Z,992.2
2018-03-25T05:21:48.723Z,992.2
2018-03-25T05:22:50.101Z,992.2
2018-03-25T05:23:51.484Z,992.2
2018-03-25T05:24:52.879Z,992.2
2018-03-25T05:25:54.256Z,992.3
2018-03-25T05:26:55.640Z,992.3
2018-03-25T05:27:57.062Z,992.3
2018-03-25T05:28:58.415Z,992.3
2018-03-25T05:29:59.894Z,992.3
2018-03-25T05:31:01.282Z,992.3
2018-03-25T05:32:02.667Z,992.3
2018-03-25T05:33:04.070Z,992.3
2018-03-25T05:34:05.486Z,992.3
2018-03-25T05:35:06.840Z,992.3
2018-03-25T05:36:08.225Z,992.3
2018-03-25T05:37:09.606Z,992.3
2018-03-25T05:38:10.989Z,992.3
2018-03-25T05:39:12.374Z,992.3
2018-03-25T05:40:13.778Z,992.3
2018-03-25T05:41:15.167Z,992.3
2018-03-25T05:42:16.551Z,992.3
2018-03-25T05:43:17.946Z,992.3
2018-03-25T05:44:19.324Z,992.3
2018-03-25T05:45:20.711Z,992.4
2018-03-25T05:46:22.094Z,992.4
2018-03-25T05:47:23.480Z,992.3
2018-03-25T05:48:24.872Z,992.3
2018-03-25T05:49:26.319Z,992.3
2018-03-25T05:50:27.723Z,992.3
2018-03-25T05:51:29.106Z,992.3
2018-03-25T05:52:30.492Z,992.4
2018-03-25T05:53:31.879Z,992.5
2018-03-25T05:54:33.266Z,992.5
2018-03-25T05:55:34.657Z,992.4
2018-03-25T05:56:36.044Z,992.5
2018-03-25T05:57:37.429Z,992.5
2018-03-25T05:58:38.815Z,992.5
2018-03-25T05:59:40.228Z,992.5
2018-03-25T06:00:41.614Z,992.6
2018-03-25T06:01:43.001Z,992.6
2018-03-25T06:02:44.390Z,992.6
2018-03-25T06:03:45.777Z,992.6
2018-03-25T06:04:47.161Z,992.6
2018-03-25T06:05:48.549Z,992.6
2018-03-25T06:06:49.937Z,992.6
2018-03-25T06:07:51.327Z,992.6
2018-03-25T06:08:52.715Z,992.6
2018-03-25T06:09:54.101Z,992.6
2018-03-25T06:10:55.493Z,992.7
2018-03-25T06:11:56.886Z,992.7
2018-03-25T06:12:58.263Z,992.7
2018-03-25T06:13:59.652Z,992.7
2018-03-25T06:15:01.036Z,992.7
2018-03-25T06:16:02.428Z,992.7
2018-03-25T06:17:03.813Z,992.8
2018-03-25T06:18:05.202Z,992.8
2018-03-25T06:19:06.590Z,992.7
2018-03-25T06:20:07.978Z,992.8
2018-03-25T06:21:09.360Z,992.8
2018-03-25T06:22:10.748Z,992.7
2018-03-25T06:23:12.134Z,992.8
2018-03-25T06:24:13.550Z,992.8
2018-03-25T06:25:14.909Z,992.8
2018-03-25T06:26:16.295Z,992.7
2018-03-25T06:27:17.682Z,992.8
2018-03-25T06:28:19.084Z,992.8
2018-03-25T06:29:20.471Z,992.9
2018-03-25T06:30:21.859Z,992.9
2018-03-25T06:31:23.247Z,992.9
2018-03-25T06:32:24.643Z,992.9
2018-03-25T06:33:26.020Z,992.9
2018-03-25T06:34:27.410Z,992.9
2018-03-25T06:35:28.796Z,992.9
2018-03-25T06:36:30.180Z,993.0
2018-03-25T06:37:31.670Z,993.0
2018-03-25T06:38:33.149Z,993.0
2018-03-25T06:39:34.533Z,993.0
2018-03-25T06:40:35.920Z,993.0
2018-03-25T06:41:37.310Z,993.0
2018-03-25T06:42:38.702Z,993.0
2018-03-25T06:43:40.088Z,993.0
2018-03-25T06:44:41.548Z,993.1
2018-03-25T06:45:42.936Z,993.1
2018-03-25T06:46:44.329Z,993.1
2018-03-25T06:47:45.720Z,993.1
2018-03-25T06:48:47.112Z,993.1
2018-03-25T06:49:48.516Z,993.1
2018-03-25T06:50:49.904Z,993.2
2018-03-25T06:51:51.300Z,993.1
2018-03-25T06:52:52.692Z,993.1
2018-03-25T06:53:54.099Z,993.1
2018-03-25T06:54:55.481Z,993.2
2018-03-25T06:55:56.886Z,993.2
2018-03-25T06:56:58.278Z,993.2
2018-03-25T06:57:59.666Z,993.2
2018-03-25T06:59:01.062Z,993.2
2018-03-25T07:00:02.445Z,993.2
2018-03-25T07:01:03.836Z,993.2
2018-03-25T07:02:05.223Z,993.2
2018-03-25T07:03:06.610Z,993.3
2018-03-25T07:04:08.001Z,993.2
2018-03-25T07:05:09.387Z,993.3
2018-03-25T07:06:10.779Z,993.3
2018-03-25T07:07:12.169Z,993.3
2018-03-25T07:08:13.557Z,993.3
2018-03-25T07:09:14.942Z,993.3
2018-03-25T07:10:16.323Z,993.3
2018-03-25T07:11:17.713Z,993.4
2018-03-25T07:12:19.104Z,993.4
2018-03-25T07:13:20.496Z,993.4
2018-03-25T07:14:21.891Z,993.4
2018-03-25T07:15:23.327Z,993.5
2018-03-25T07:16:24.717Z,993.4
2018-03-25T07:17:26.099Z,993.5
2018-03-25T07:18:27.489Z,993.5
2018-03-25T07:19:28.877Z,993.5
2018-03-25T07:20:30.281Z,993.5
2018-03-25T07:21:31.691Z,993.5
2018-03-25T07:22:33.063Z,993.6
2018-03-25T07:23:34.451Z,993.6
2018-03-25T07:24:35.841Z,993.6
2018-03-25T07:25:37.260Z,993.6
2018-03-25T07:26:38.642Z,993.6
2018-03-25T07:27:40.039Z,993.6
2018-03-25T07:28:41.424Z,993.6
2018-03-25T07:29:42.814Z,993.6
2018-03-25T07:30:44.200Z,993.6
2018-03-25T07:31:45.638Z,993.6
2018-03-25T07:32:47.155Z,993.6
2018-03-25T07:33:48.614Z,993.7
2018-03-25T07:34:50.045Z,993.6
2018-03-25T07:35:51.458Z,993.7
2018-03-25T07:36:52.851Z,993.6
2018-03-25T07:37:54.238Z,993.7
2018-03-25T07:38:55.626Z,993.6
2018-03-25T07:39:57.014Z,993.6
2018-03-25T07:40:58.408Z,993.7
2018-03-25T07:41:59.792Z,993.7
2018-03-25T07:43:01.185Z,993.7
2018-03-25T07:44:02.574Z,993.7
2018-03-25T07:45:03.959Z,993.7
2018-03-25T07:46:05.351Z,993.7
2018-03-25T07:47:06.748Z,993.8
2018-03-25T07:48:08.139Z,993.8
2018-03-25T07:49:09.532Z,993.7
2018-03-25T07:50:10.930Z,993.7
2018-03-25T07:51:12.311Z,993.8
2018-03-25T07:52:13.703Z,993.8
2018-03-25T07:53:15.091Z,993.8
2018-03-25T07:54:16.486Z,993.8
2018-03-25T07:55:17.878Z,993.8
2018-03-25T07:56:19.268Z,993.8
2018-03-25T07:57:20.666Z,993.8
2018-03-25T07:58:22.053Z,993.9
2018-03-25T07:59:23.441Z,993.9
2018-03-25T08:00:24.832Z,993.9
2018-03-25T08:01:26.226Z,993.9
2018-03-25T08:02:27.611Z,993.9
2018-03-25T08:03:29.007Z,993.9
2018-03-25T08:04:30.387Z,994.0
2018-03-25T08:05:31.790Z,994.0
2018-03-25T08:06:33.179Z,994.0
2018-03-25T08:07:34.566Z,994.0
2018-03-25T08:08:35.960Z,994.0
2018-03-25T08:09:37.346Z,994.0
2018-03-25T08:10:38.739Z,994.0
2018-03-25T08:11:40.129Z,994.1
2018-03-25T08:12:41.543Z,994.0
2018-03-25T08:13:43.084Z,994.1
2018-03-25T08:14:44.483Z,994.0
2018-03-25T08:15:45.870Z,994.1
2018-03-25T08:16:47.271Z,994.1
2018-03-25T08:17:48.774Z,994.1
2018-03-25T08:18:50.162Z,994.1
2018-03-25T08:19:51.622Z,994.1
2018-03-25T08:20:53.006Z,994.1
2018-03-25T08:21:54.432Z,994.1
2018-03-25T08:22:55.822Z,994.1
2018-03-25T08:23:57.210Z,994.1
2018-03-25T08:24:58.606Z,994.1
2018-03-25T08:25:59.999Z,994.1
2018-03-25T08:27:01.388Z,994.1
2018-03-25T08:28:02.779Z,994.1
2018-03-25T08:29:04.168Z,994.1
2018-03-25T08:30:05.561Z,994.1
2018-03-25T08:31:06.953Z,994.1
2018-03-25T08:32:08.343Z,994.1
2018-03-25T08:33:09.736Z,994.1
2018-03-25T08:34:11.127Z,994.1
2018-03-25T08:35:12.515Z,994.1
2018-03-25T08:36:13.909Z,994.1
2018-03-25T08:37:15.301Z,994.1
2018-03-25T08:38:16.716Z,994.1
2018-03-25T08:39:18.086Z,994.1
2018-03-25T08:40:19.596Z,994.1
2018-03-25T08:41:21.090Z,994.1
2018-03-25T08:42:22.489Z,994.1
2018-03-25T08:43:24.008Z,994.1
2018-03-25T08:44:25.401Z,994.1
2018-03-25T08:45:26.795Z,994.1
2018-03-25T08:46:28.188Z,994.1
2018-03-25T08:47:29.616Z,994.1
2018-03-25T08:48:31.035Z,994.2
2018-03-25T08:49:32.462Z,994.2
2018-03-25T08:50:33.850Z,994.2
2018-03-25T08:51:35.257Z,994.2
2018-03-25T08:52:36.717Z,994.2
2018-03-25T08:53:38.116Z,994.2
2018-03-25T08:54:39.516Z,994.3
2018-03-25T08:55:40.940Z,994.2
2018-03-25T08:56:42.346Z,994.2
2018-03-25T08:57:43.748Z,994.2
2018-03-25T08:58:45.246Z,994.2
2018-03-25T08:59:46.710Z,994.2
2018-03-25T09:00:48.106Z,994.2
2018-03-25T09:01:49.499Z,994.2
2018-03-25T09:02:50.900Z,994.2
2018-03-25T09:03:52.355Z,994.2
2018-03-25T09:04:53.694Z,994.2
2018-03-25T09:05:55.087Z,994.2
2018-03-25T09:06:56.509Z,994.3
2018-03-25T09:07:58.103Z,994.3
2018-03-25T09:08:59.499Z,994.2
2018-03-25T09:10:00.894Z,994.2
2018-03-25T09:11:02.366Z,994.3
2018-03-25T09:12:03.755Z,994.2
2018-03-25T09:13:05.202Z,994.2
2018-03-25T09:14:06.594Z,994.2
2018-03-25T09:15:07.994Z,994.2
2018-03-25T09:16:09.423Z,994.2
2018-03-25T09:17:10.818Z,994.2
2018-03-25T09:18:12.212Z,994.3
2018-03-25T09:19:13.611Z,994.3
2018-03-25T09:20:15.010Z,994.3
2018-03-25T09:21:16.408Z,994.3
2018-03-25T09:22:17.810Z,994.3
2018-03-25T09:23:19.207Z,994.3
2018-03-25T09:24:20.606Z,994.3
2018-03-25T09:25:22.089Z,994.4
2018-03-25T09:26:23.473Z,994.4
2018-03-25T09:27:25.023Z,994.4
2018-03-25T09:28:26.610Z,994.4
2018-03-25T09:29:28.016Z,994.4
2018-03-25T09:30:29.481Z,994.4
2018-03-25T09:31:31.086Z,994.4
2018-03-25T09:32:32.637Z,994.4
2018-03-25T09:33:34.036Z,994.4
2018-03-25T09:34:35.442Z,994.4
2018-03-25T09:35:36.983Z,994.5
2018-03-25T09:36:38.600Z,994.4
2018-03-25T09:37:40.006Z,994.4
2018-03-25T09:38:41.408Z,994.4
2018-03-25T09:39:42.927Z,994.5
2018-03-25T09:40:44.464Z,994.5
2018-03-25T09:41:45.846Z,994.5
2018-03-25T09:42:47.344Z,994.5
2018-03-25T09:43:49.061Z,994.5
2018-03-25T09:44:50.710Z,994.5
2018-03-25T09:45:52.114Z,994.5
2018-03-25T09:46:53.525Z,994.6
2018-03-25T09:47:55.065Z,994.6
2018-03-25T09:48:56.692Z,994.5
2018-03-25T09:49:58.094Z,994.6
2018-03-25T09:50:59.499Z,994.6
2018-03-25T09:52:01.016Z,994.6
2018-03-25T09:53:02.620Z,994.6
2018-03-25T09:54:04.027Z,994.6
2018-03-25T09:55:05.428Z,994.6
2018-03-25T09:56:06.948Z,994.6
2018-03-25T09:57:08.502Z,994.6
2018-03-25T09:58:09.954Z,994.6
2018-03-25T09:59:11.355Z,994.5
2018-03-25T10:00:12.873Z,994.5
2018-03-25T10:01:14.463Z,994.6
2018-03-25T10:02:15.920Z,994.6
2018-03-25T10:03:17.293Z,994.6
2018-03-25T10:04:18.919Z,994.5
2018-03-25T10:05:20.513Z,994.6
2018-03-25T10:06:22.451Z,994.6
2018-03-25T10:07:23.856Z,994.6
2018-03-25T10:08:25.259Z,994.6
2018-03-25T10:09:26.766Z,994.6
2018-03-25T10:10:28.313Z,994.7
2018-03-25T10:11:29.873Z,994.6
2018-03-25T10:12:31.245Z,994.6
2018-03-25T10:13:32.650Z,994.6
2018-03-25T10:14:34.062Z,994.6
2018-03-25T10:15:35.471Z,994.7
2018-03-25T10:16:36.879Z,994.7
2018-03-25T10:17:38.294Z,994.7
2018-03-25T10:18:39.709Z,994.7
2018-03-25T10:19:41.119Z,994.7
2018-03-25T10:20:42.562Z,994.7
2018-03-25T10:21:44.173Z,994.7
2018-03-25T10:22:46.008Z,994.7
2018-03-25T10:23:47.492Z,994.7
2018-03-25T10:24:48.974Z,994.7
2018-03-25T10:25:50.934Z,994.7
2018-03-25T10:26:52.366Z,994.7
2018-03-25T10:27:53.777Z,994.7
2018-03-25T10:28:55.229Z,994.7
2018-03-25T10:29:56.613Z,994.7
2018-03-25T10:30:58.035Z,994.7
2018-03-25T10:31:59.514Z,994.7
2018-03-25T10:33:00.919Z,994.7
2018-03-25T10:34:02.319Z,994.7
2018-03-25T10:35:03.728Z,994.6
2018-03-25T10:36:05.136Z,994.7
2018-03-25T10:37:06.540Z,994.7
2018-03-25T10:38:07.938Z,994.7
2018-03-25T10:39:09.343Z,994.6
2018-03-25T10:40:10.892Z,994.6
2018-03-25T10:41:12.302Z,994.6
2018-03-25T10:42:13.706Z,994.7
2018-03-25T10:43:15.110Z,994.7
2018-03-25T10:44:16.513Z,994.7
2018-03-25T10:45:17.914Z,994.7
2018-03-25T10:46:19.314Z,994.7
2018-03-25T10:47:20.763Z,994.7
2018-03-25T10:48:22.170Z,994.8
2018-03-25T10:49:23.574Z,994.7
2018-03-25T10:50:24.988Z,994.7
2018-03-25T10:51:26.381Z,994.7
2018-03-25T10:52:27.782Z,994.7
2018-03-25T10:53:29.182Z,994.7
2018-03-25T10:54:30.584Z,994.7
2018-03-25T10:55:31.987Z,994.7
2018-03-25T10:56:33.392Z,994.7
2018-03-25T10:57:34.796Z,994.7
2018-03-25T10:58:36.195Z,994.7
2018-03-25T10:59:37.594Z,994.7
2018-03-25T11:00:38.995Z,994.7
2018-03-25T11:01:40.409Z,994.8
2018-03-25T11:02:41.894Z,994.8
2018-03-25T11:03:43.281Z,994.8
2018-03-25T11:04:44.715Z,994.8
2018-03-25T11:05:46.090Z,994.8
2018-03-25T11:06:47.490Z,994.8
2018-03-25T11:07:48.892Z,994.9
2018-03-25T11:08:50.365Z,994.9
2018-03-25T11:09:51.770Z,994.9
2018-03-25T11:10:53.178Z,995.0
2018-03-25T11:11:54.634Z,994.9
2018-03-25T11:12:55.984Z,994.9
2018-03-25T11:13:57.386Z,994.9
2018-03-25T11:14:58.793Z,994.9
2018-03-25T11:16:00.200Z,994.9
2018-03-25T11:17:01.725Z,994.9
2018-03-25T11:18:03.104Z,994.9
2018-03-25T11:19:04.529Z,994.9
2018-03-25T11:20:05.913Z,994.9
2018-03-25T11:21:07.311Z,994.9
2018-03-25T11:22:08.714Z,994.9
2018-03-25T11:23:10.125Z,994.9
2018-03-25T11:24:11.527Z,994.9
2018-03-25T11:25:12.929Z,995.0
2018-03-25T11:26:14.343Z,995.0
2018-03-25T11:27:15.760Z,995.0
2018-03-25T11:28:17.160Z,994.9
2018-03-25T11:29:18.559Z,994.9
2018-03-25T11:30:19.989Z,994.9
2018-03-25T11:31:21.394Z,994.9
2018-03-25T11:32:22.819Z,994.9
2018-03-25T11:33:24.224Z,994.9
2018-03-25T11:34:25.662Z,994.9
2018-03-25T11:35:27.026Z,994.9
2018-03-25T11:36:28.430Z,994.9
2018-03-25T11:37:29.834Z,994.9
2018-03-25T11:38:31.237Z,995.0
2018-03-25T11:39:32.641Z,994.9
2018-03-25T11:40:34.045Z,994.9
2018-03-25T11:41:35.444Z,994.9
2018-03-25T11:42:36.844Z,994.9
2018-03-25T11:43:38.249Z,994.9
2018-03-25T11:44:39.649Z,994.9
2018-03-25T11:45:41.065Z,994.9
2018-03-25T11:46:42.463Z,994.9
2018-03-25T11:47:43.869Z,994.9
2018-03-25T11:48:45.270Z,995.0
2018-03-25T11:49:46.668Z,994.9
2018-03-25T11:50:48.068Z,994.9
2018-03-25T11:51:49.475Z,994.9
2018-03-25T11:52:50.928Z,994.9
2018-03-25T11:53:52.348Z,995.0
2018-03-25T11:54:53.757Z,994.9
2018-03-25T11:55:55.165Z,995.0
2018-03-25T11:56:56.577Z,994.9
2018-03-25T11:57:57.979Z,995.0
2018-03-25T11:58:59.392Z,995.0
2018-03-25T12:00:00.801Z,994.9
2018-03-25T12:01:02.206Z,995.0
2018-03-25T12:02:03.609Z,995.0
2018-03-25T12:03:05.009Z,995.0
2018-03-25T12:04:06.424Z,995.0
2018-03-25T12:05:07.901Z,995.0
2018-03-25T12:06:09.336Z,995.0
2018-03-25T12:07:10.738Z,995.0
2018-03-25T12:08:12.143Z,995.0
2018-03-25T12:09:13.549Z,995.0
2018-03-25T12:10:14.948Z,995.0
2018-03-25T12:11:16.416Z,995.0
2018-03-25T12:12:17.710Z,995.0
2018-03-25T12:13:19.145Z,994.9
2018-03-25T12:14:20.528Z,995.0
2018-03-25T12:15:21.932Z,995.0
2018-03-25T12:16:23.382Z,995.0
2018-03-25T12:17:24.804Z,995.0
2018-03-25T12:18:26.206Z,995.0
2018-03-25T12:19:27.605Z,995.0
2018-03-25T12:20:29.021Z,995.0
2018-03-25T12:21:30.411Z,995.0
2018-03-25T12:22:31.813Z,995.0
2018-03-25T12:23:33.215Z,995.0
2018-03-25T12:24:34.618Z,995.0
2018-03-25T12:25:36.351Z,995.0
2018-03-25T12:26:37.753Z,995.0
2018-03-25T12:27:39.181Z,995.0
2018-03-25T12:28:40.558Z,995.0
2018-03-25T12:29:41.969Z,995.0
2018-03-25T12:30:43.370Z,995.0
2018-03-25T12:31:44.771Z,995.0
2018-03-25T12:32:46.168Z,995.0
2018-03-25T12:33:47.571Z,995.0
2018-03-25T12:34:48.996Z,995.0
2018-03-25T12:35:50.399Z,995.0
2018-03-25T12:36:51.802Z,995.0
2018-03-25T12:37:53.226Z,995.0
2018-03-25T12:38:54.626Z,995.0
2018-03-25T12:39:56.129Z,995.0
2018-03-25T12:40:57.542Z,995.0
2018-03-25T12:41:58.944Z,995.0
2018-03-25T12:43:00.448Z,995.0
2018-03-25T12:44:01.852Z,995.0
2018-03-25T12:45:03.266Z,995.0
2018-03-25T12:46:04.669Z,995.0
2018-03-25T12:47:06.072Z,995.0
2018-03-25T12:48:07.472Z,995.0
2018-03-25T12:49:08.890Z,995.1
2018-03-25T12:50:10.290Z,995.0
2018-03-25T12:51:11.695Z,995.0
2018-03-25T12:52:13.101Z,995.0
2018-03-25T12:53:14.577Z,995.0
2018-03-25T12:54:15.976Z,995.0
2018-03-25T12:55:17.373Z,995.0
2018-03-25T12:56:18.778Z,995.0
2018-03-25T12:57:20.186Z,995.0
2018-03-25T12:58:21.590Z,994.9
2018-03-25T12:59:22.992Z,995.0
2018-03-25T13:00:24.395Z,995.0
2018-03-25T13:01:25.795Z,994.9
2018-03-25T13:02:27.200Z,994.9
2018-03-25T13:03:28.603Z,995.0
2018-03-25T13:04:30.012Z,995.0
2018-03-25T13:05:31.410Z,995.0
2018-03-25T13:06:32.810Z,995.0
2018-03-25T13:07:34.214Z,995.0
2018-03-25T13:08:35.614Z,995.0
2018-03-25T13:09:37.015Z,995.0
2018-03-25T13:10:38.415Z,995.0